Time;durP1;ratioP1;P1;durP2;ratioP2;P2;SDS_P1;SDS_P2;PMS_P1;PMS_P2;Temp;Humidity;BMP_temperature;BMP_pressure;BME280_temperature;BME280_humidity;BME280_pressure;Samples;Min_cycle;Max_cycle;Signal;HPM_P1;HPM_P2
2023/04/19 00:02:17;;;;;;;10.75;8.18;;;;;;;8.59;100.00;102848.09;5049168;28;20495;-66
2023/04/19 00:04:43;;;;;;;13.48;7.25;;;;;;;8.44;100.00;102849.72;5049742;28;20587;-65
2023/04/19 00:07:09;;;;;;;12.30;8.13;;;;;;;8.55;100.00;102847.19;5045038;28;20021;-64
2023/04/19 00:09:34;;;;;;;9.63;8.18;;;;;;;8.55;100.00;102841.91;5029942;28;20033;-67
2023/04/19 00:12:00;;;;;;;11.48;7.65;;;;;;;8.57;100.00;102849.81;5029582;28;20057;-64
2023/04/19 00:14:25;;;;;;;12.75;7.55;;;;;;;8.54;100.00;102845.44;5040082;28;20430;-65
2023/04/19 00:16:50;;;;;;;13.35;8.38;;;;;;;8.48;100.00;102845.34;5032709;28;20018;-66
2023/04/19 00:19:16;;;;;;;11.10;8.07;;;;;;;8.57;100.00;102841.94;5011880;28;20060;-65
2023/04/19 00:21:41;;;;;;;10.88;8.15;;;;;;;8.56;100.00;102843.69;5029580;28;20030;-65
2023/04/19 00:24:07;;;;;;;12.13;8.18;;;;;;;8.55;100.00;102847.19;5030631;28;20025;-65
2023/04/19 00:26:32;;;;;;;10.55;8.40;;;;;;;8.53;100.00;102838.38;5029072;28;20533;-65
2023/04/19 00:28:58;;;;;;;11.23;8.10;;;;;;;8.55;100.00;102835.81;5029995;28;20025;-64
2023/04/19 00:31:23;;;;;;;11.43;8.50;;;;;;;8.36;100.00;102837.41;5028116;28;20111;-64
2023/04/19 00:33:48;;;;;;;10.13;8.18;;;;;;;8.36;100.00;102833.00;5028499;28;20026;-66
2023/04/19 00:36:14;;;;;;;10.02;8.00;;;;;;;8.39;100.00;102835.66;5027548;28;20049;-65
2023/04/19 00:38:39;;;;;;;12.35;8.57;;;;;;;8.36;100.00;102837.41;5011159;28;20629;-65
2023/04/19 00:41:05;;;;;;;14.65;8.45;;;;;;;8.40;100.00;102834.78;5029369;28;20104;-65
2023/04/19 00:43:30;;;;;;;13.98;8.43;;;;;;;8.52;100.00;102828.72;5048390;28;20112;-68
2023/04/19 00:45:55;;;;;;;11.23;8.70;;;;;;;8.63;100.00;102833.22;5046835;28;20031;-65
2023/04/19 00:48:21;;;;;;;11.23;8.57;;;;;;;8.72;100.00;102830.63;5047668;28;20067;-64
2023/04/19 00:50:46;;;;;;;15.88;9.15;;;;;;;8.79;100.00;102824.53;5048160;28;20234;-66
2023/04/19 00:53:11;;;;;;;11.05;8.95;;;;;;;8.94;100.00;102825.53;5028649;28;20379;-65
2023/04/19 00:55:40;;;;;;;13.88;9.35;;;;;;;8.96;100.00;102829.03;5047180;28;20529;-65
2023/04/19 00:58:07;;;;;;;12.75;8.80;;;;;;;8.96;100.00;102823.75;5029450;28;20056;-67
2023/04/19 01:00:32;;;;;;;13.75;8.45;;;;;;;9.07;100.00;102824.72;5047480;28;20443;-65
2023/04/19 01:02:57;;;;;;;14.50;9.40;;;;;;;9.15;100.00;102823.84;5032113;28;20049;-67
2023/04/19 01:05:23;;;;;;;11.75;8.73;;;;;;;9.06;100.00;102827.34;5010195;28;20025;-65
2023/04/19 01:07:48;;;;;;;10.70;8.60;;;;;;;9.04;100.00;102819.44;5027394;28;20034;-68
2023/04/19 01:10:14;;;;;;;12.93;9.05;;;;;;;9.01;100.00;102818.53;5027776;28;20415;-63
2023/04/19 01:12:39;;;;;;;12.90;8.88;;;;;;;8.86;100.00;102812.34;5035220;28;20102;-67
2023/04/19 01:15:05;;;;;;;15.90;9.60;;;;;;;8.84;100.00;102812.31;5037187;28;20771;-67
2023/04/19 01:17:31;;;;;;;13.55;8.77;;;;;;;8.72;100.00;102813.13;5039351;28;20028;-66
2023/04/19 01:20:01;;;;;;;13.02;8.68;;;;;;;8.93;100.00;102815.84;5042808;28;20033;-64
2023/04/19 01:22:27;;;;;;;14.02;9.10;;;;;;;8.75;100.00;102814.91;5046779;28;20456;-66
2023/04/19 01:24:52;;;;;;;10.70;8.13;;;;;;;8.77;100.00;102809.66;5046652;28;20104;-65
2023/04/19 01:27:18;;;;;;;10.95;8.80;;;;;;;8.77;100.00;102809.66;5046662;28;20028;-65
2023/04/19 01:29:44;;;;;;;12.68;9.13;;;;;;;8.71;100.00;102814.00;5046223;28;20033;-65
2023/04/19 01:32:11;;;;;;;14.48;8.45;;;;;;;8.57;100.00;102813.91;5045943;28;20528;-67
2023/04/19 01:34:37;;;;;;;11.50;8.80;;;;;;;8.58;100.00;102817.44;5047322;28;20024;-65
2023/04/19 01:37:02;;;;;;;12.40;9.00;;;;;;;8.57;100.00;102813.03;5045997;28;20166;-67
2023/04/19 01:39:27;;;;;;;12.60;9.35;;;;;;;8.52;100.00;102810.34;5046834;28;20025;-65
2023/04/19 01:41:53;;;;;;;11.48;9.18;;;;;;;8.41;100.00;102807.66;5046703;28;20040;-65
2023/04/19 01:44:18;;;;;;;15.82;9.23;;;;;;;8.38;100.00;102806.75;5027554;28;20017;-64
2023/04/19 01:46:44;;;;;;;17.20;9.77;;;;;;;8.31;100.00;102806.69;5046492;28;20044;-65
2023/04/19 01:49:09;;;;;;;11.63;9.27;;;;;;;8.37;100.00;102810.25;5047402;28;20402;-63
2023/04/19 01:51:37;;;;;;;12.43;9.23;;;;;;;8.28;100.00;102811.91;5032461;28;20041;-65
2023/04/19 01:54:02;;;;;;;13.13;8.82;;;;;;;8.37;100.00;102815.50;5026894;28;20036;-65
2023/04/19 01:56:27;;;;;;;12.93;9.15;;;;;;;8.32;100.00;102807.59;5009907;28;20018;-66
2023/04/19 01:58:53;;;;;;;13.35;9.98;;;;;;;8.29;100.00;102815.44;5043685;28;20079;-65
2023/04/19 02:01:18;;;;;;;14.27;10.38;;;;;;;8.28;100.00;102811.91;5046752;28;20021;-66
2023/04/19 02:03:44;;;;;;;14.27;9.55;;;;;;;8.25;100.00;102811.91;5046170;28;20104;-66
2023/04/19 02:06:12;;;;;;;16.40;10.23;;;;;;;8.36;100.00;102808.50;5028647;28;20025;-65
2023/04/19 02:08:39;;;;;;;12.25;9.52;;;;;;;8.33;100.00;102815.47;5049138;28;20048;-64
2023/04/19 02:11:08;;;;;;;15.18;10.05;;;;;;;8.26;100.00;102803.16;5047150;28;20021;-65
2023/04/19 02:13:33;;;;;;;;;;;;;;;8.33;100.00;102802.34;5031222;28;20045;-63
2023/04/19 02:16:01;;;;;;;15.88;10.75;;;;;;;8.42;100.00;102798.00;5031583;28;19920;-65
2023/04/19 02:18:28;;;;;;;14.93;10.27;;;;;;;8.44;100.00;102798.91;5052323;28;20049;-64
2023/04/19 02:20:54;;;;;;;15.48;11.05;;;;;;;8.45;100.00;102798.91;5051015;28;20033;-65
2023/04/19 02:23:19;;;;;;;14.85;10.60;;;;;;;8.45;100.00;102798.91;5032488;28;20029;-65
2023/04/19 02:25:45;;;;;;;15.00;9.68;;;;;;;8.63;100.00;102799.94;5051537;28;20060;-64
2023/04/19 02:28:10;;;;;;;15.45;11.02;;;;;;;8.63;100.00;102799.03;5035236;28;20026;-65
2023/04/19 02:30:35;;;;;;;14.10;9.63;;;;;;;8.64;100.00;102799.06;5030931;28;20053;-65
2023/04/19 02:33:01;;;;;;;12.05;9.52;;;;;;;8.84;100.00;102806.19;5031970;28;20022;-65
2023/04/19 02:35:26;;;;;;;14.07;10.75;;;;;;;8.84;100.00;102807.06;5031869;28;20029;-65
2023/04/19 02:37:51;;;;;;;13.23;10.88;;;;;;;8.82;100.00;102807.94;5045503;28;20590;-64
2023/04/19 02:40:17;;;;;;;14.02;10.45;;;;;;;8.83;100.00;102805.31;5050621;28;20417;-64
2023/04/19 02:42:42;;;;;;;15.30;10.70;;;;;;;8.88;100.00;102807.09;5049673;28;20414;-65
2023/04/19 02:45:08;;;;;;;12.50;10.40;;;;;;;8.77;100.00;102810.53;5049475;28;20356;-66
2023/04/19 02:47:33;;;;;;;14.27;10.75;;;;;;;8.78;100.00;102811.41;5038290;28;20025;-65
2023/04/19 02:49:59;;;;;;;16.50;10.25;;;;;;;8.80;100.00;102815.81;5031161;28;20108;-64
2023/04/19 02:52:25;;;;;;;17.90;10.55;;;;;;;8.93;100.00;102816.75;5028907;28;20025;-67
2023/04/19 02:54:50;;;;;;;15.77;10.07;;;;;;;8.97;100.00;102817.63;5012893;28;20048;-65
2023/04/19 02:57:16;;;;;;;13.18;10.38;;;;;;;8.92;100.00;102814.09;5028814;28;20061;-65
2023/04/19 02:59:41;;;;;;;14.77;9.75;;;;;;;8.99;100.00;102815.88;5029511;28;20112;-66
2023/04/19 03:02:07;;;;;;;16.15;10.35;;;;;;;9.03;100.00;102812.41;5014666;28;20033;-64
2023/04/19 03:04:33;;;;;;;15.63;10.73;;;;;;;9.18;100.00;102818.63;5023902;28;20478;-67
2023/04/19 03:06:58;;;;;;;16.25;10.65;;;;;;;9.17;100.00;102819.47;5032108;28;20040;-64
2023/04/19 03:09:24;;;;;;;14.95;10.27;;;;;;;9.24;100.00;102821.25;5038782;28;20018;-64
2023/04/19 03:11:49;;;;;;;16.08;10.02;;;;;;;9.19;100.00;102820.38;5011923;28;20109;-64
2023/04/19 03:14:14;;;;;;;17.02;10.35;;;;;;;9.26;100.00;102819.50;5016841;28;20060;-64
2023/04/19 03:16:40;;;;;;;16.77;11.18;;;;;;;9.23;100.00;102817.75;5031606;28;20040;-65
2023/04/19 03:19:05;;;;;;;14.07;10.43;;;;;;;9.35;100.00;102818.66;5046091;28;20029;-66
2023/04/19 03:21:31;;;;;;;13.30;10.90;;;;;;;9.41;100.00;102812.53;5029092;28;20025;-66
2023/04/19 03:23:56;;;;;;;16.23;10.88;;;;;;;9.33;100.00;102809.91;5029086;28;20227;-66
2023/04/19 03:26:21;;;;;;;16.88;10.38;;;;;;;9.54;100.00;102808.19;5028377;28;20032;-65
2023/04/19 03:28:47;;;;;;;16.13;11.27;;;;;;;9.48;100.00;102804.66;5027682;28;20538;-65
2023/04/19 03:31:13;;;;;;;14.80;10.60;;;;;;;9.37;100.00;102803.75;5028112;28;20029;-63
2023/04/19 03:33:38;;;;;;;17.13;11.23;;;;;;;9.56;100.00;102801.16;5024619;28;20041;-65
2023/04/19 03:36:04;;;;;;;14.35;10.15;;;;;;;9.50;100.00;102796.78;5048323;28;20110;-64
2023/04/19 03:38:29;;;;;;;18.08;10.75;;;;;;;9.68;100.00;102795.03;5048008;28;20053;-64
2023/04/19 03:40:56;;;;;;;14.48;9.57;;;;;;;9.65;100.00;102790.66;5030602;28;20024;-64
2023/04/19 03:43:21;;;;;;;14.75;10.27;;;;;;;9.68;100.00;102795.03;5018230;28;20041;-64
2023/04/19 03:45:46;;;;;;;14.27;10.52;;;;;;;9.56;100.00;102794.16;5028386;28;20022;-66
2023/04/19 03:48:12;;;;;;;15.55;9.75;;;;;;;9.67;100.00;102795.94;5028157;28;20018;-65
2023/04/19 03:50:37;;;;;;;14.93;10.73;;;;;;;9.63;100.00;102796.81;5011036;28;20026;-63
2023/04/19 03:53:04;;;;;;;17.38;11.00;;;;;;;9.61;100.00;102794.16;5013108;28;20025;-63
2023/04/19 03:55:30;;;;;;;15.10;10.68;;;;;;;9.56;100.00;102802.06;5029287;28;20029;-64
2023/04/19 03:57:55;;;;;;;15.73;10.43;;;;;;;9.62;100.00;102793.28;5021490;28;20021;-64
2023/04/19 04:00:20;;;;;;;18.17;11.00;;;;;;;9.73;100.00;102793.31;5027668;28;20626;-66
2023/04/19 04:02:46;;;;;;;13.48;10.30;;;;;;;9.84;100.00;102796.81;5027682;28;20022;-66
2023/04/19 04:05:11;;;;;;;13.23;10.05;;;;;;;9.88;100.00;102796.81;5046468;28;20032;-64
2023/04/19 04:07:37;;;;;;;13.23;10.10;;;;;;;9.83;100.00;102795.06;5047586;28;20033;-64
2023/04/19 04:10:02;;;;;;;16.15;10.63;;;;;;;9.73;100.00;102790.69;5033095;28;20025;-64
2023/04/19 04:12:27;;;;;;;15.18;10.32;;;;;;;9.59;100.00;102799.44;5027956;28;20472;-65
2023/04/19 04:14:53;;;;;;;15.13;9.52;;;;;;;9.79;100.00;102798.59;5038609;28;20032;-63
2023/04/19 04:17:18;;;;;;;17.40;10.98;;;;;;;9.82;100.00;102801.19;5047484;28;20025;-65
2023/04/19 04:19:43;;;;;;;14.70;9.80;;;;;;;9.90;100.00;102798.56;5046252;28;20449;-64
2023/04/19 04:22:09;;;;;;;15.38;10.05;;;;;;;9.83;100.00;102805.59;5047095;28;20043;-66
2023/04/19 04:24:40;;;;;;;12.23;8.95;;;;;;;9.76;100.00;102808.22;5028984;28;20032;-65
2023/04/19 04:27:11;;;;;;;15.18;9.68;;;;;;;9.77;100.00;102805.59;5047030;28;20025;-66
2023/04/19 04:29:37;;;;;;;15.80;9.93;;;;;;;9.76;100.00;102798.56;5041659;28;20357;-64
2023/04/19 04:32:09;;;;;;;14.70;9.77;;;;;;;9.82;100.00;102805.59;5026989;28;20124;-66
2023/04/19 04:34:36;;;;;;;17.73;9.80;;;;;;;9.77;100.00;102800.31;5033278;28;20037;-66
2023/04/19 04:37:01;;;;;;;12.05;8.82;;;;;;;9.83;100.00;102802.97;5035934;28;20021;-66
2023/04/19 04:39:27;;;;;;;14.23;9.43;;;;;;;9.82;100.00;102802.97;5047899;28;20025;-65
2023/04/19 04:41:53;;;;;;;16.27;9.55;;;;;;;9.95;100.00;102798.56;5047254;28;20029;-65
2023/04/19 04:44:19;;;;;;;14.43;8.90;;;;;;;9.85;100.00;102806.47;5046179;28;20033;-65
2023/04/19 04:46:45;;;;;;;13.95;9.32;;;;;;;9.95;100.00;102803.84;5047430;28;20071;-63
2023/04/19 04:49:10;;;;;;;14.10;9.38;;;;;;;9.88;100.00;102807.34;5046802;28;20028;-64
2023/04/19 04:51:36;;;;;;;10.77;8.98;;;;;;;9.96;100.00;102803.84;5045789;28;20052;-65
2023/04/19 04:54:01;;;;;;;14.80;8.88;;;;;;;9.85;100.00;102811.72;5031802;28;20675;-68
2023/04/19 04:56:27;;;;;;;16.58;9.45;;;;;;;9.93;100.00;102806.47;5009806;28;20028;-66
2023/04/19 04:58:52;;;;;;;12.00;8.55;;;;;;;10.04;100.00;102813.50;5025447;28;20558;-65
2023/04/19 05:01:18;;;;;;;11.32;8.80;;;;;;;9.96;100.00;102811.75;5016862;28;20040;-65
2023/04/19 05:03:44;;;;;;;12.70;9.30;;;;;;;9.81;100.00;102812.59;5045517;28;20036;-63
2023/04/19 05:06:09;;;;;;;11.63;8.52;;;;;;;9.74;100.00;102816.13;5044946;28;20020;-62
2023/04/19 05:08:35;;;;;;;13.65;9.70;;;;;;;9.75;100.00;102814.38;5045468;28;20023;-64
2023/04/19 05:11:00;;;;;;;11.13;8.40;;;;;;;9.66;100.00;102812.59;5022188;28;20021;-65
2023/04/19 05:13:25;;;;;;;14.60;8.65;;;;;;;9.60;100.00;102814.34;5007897;28;20107;-63
2023/04/19 05:15:51;;;;;;;13.32;9.15;;;;;;;9.67;100.00;102815.25;5027243;28;20025;-64
2023/04/19 05:18:16;;;;;;;13.38;8.30;;;;;;;9.64;100.00;102819.59;5045547;28;20151;-66
2023/04/19 05:20:42;;;;;;;12.98;9.38;;;;;;;9.75;100.00;102817.88;5045282;28;20029;-63
2023/04/19 05:23:10;;;;;;;11.88;8.65;;;;;;;9.65;100.00;102818.72;5045694;28;20036;-64
2023/04/19 05:25:35;;;;;;;13.93;8.77;;;;;;;9.68;100.00;102819.63;5044545;28;20491;-64
2023/04/19 05:28:02;;;;;;;13.15;8.40;;;;;;;9.78;100.00;102822.28;5016214;28;20036;-64
2023/04/19 05:30:27;;;;;;;16.45;9.00;;;;;;;9.68;100.00;102816.09;5045471;28;20033;-65
2023/04/19 05:32:53;;;;;;;13.43;8.63;;;;;;;9.49;100.00;102826.59;5044971;28;20464;-64
2023/04/19 05:35:18;;;;;;;14.02;9.27;;;;;;;9.37;100.00;102821.28;5026704;28;20040;-63
2023/04/19 05:37:44;;;;;;;16.42;8.82;;;;;;;9.44;100.00;102828.31;5044759;28;20159;-64
2023/04/19 05:40:09;;;;;;;14.75;8.85;;;;;;;9.40;100.00;102829.19;5036856;28;20431;-64
2023/04/19 05:42:35;;;;;;;11.35;7.80;;;;;;;9.29;100.00;102835.31;5007303;28;20067;-65
2023/04/19 05:45:00;;;;;;;15.05;9.18;;;;;;;9.39;100.00;102837.97;5023633;28;20093;-67
2023/04/19 05:47:25;;;;;;;14.27;9.18;;;;;;;9.26;100.00;102840.56;5025781;28;20488;-65
2023/04/19 05:49:51;;;;;;;18.10;9.15;;;;;;;9.31;100.00;102838.84;5027008;28;20116;-65
2023/04/19 05:52:16;;;;;;;13.88;9.57;;;;;;;9.25;100.00;102844.06;5045608;28;20021;-64
2023/04/19 05:54:43;;;;;;;16.17;9.25;;;;;;;9.23;100.00;102837.91;5043991;28;20460;-65
2023/04/19 05:57:08;;;;;;;16.58;9.13;;;;;;;9.34;100.00;102844.06;5008283;28;20431;-64
2023/04/19 05:59:34;;;;;;;17.75;8.80;;;;;;;9.41;100.00;102838.84;5006484;28;20033;-66
2023/04/19 06:02:00;;;;;;;12.15;8.65;;;;;;;9.31;100.00;102844.09;5025323;28;20073;-64
2023/04/19 06:04:25;;;;;;;12.52;8.45;;;;;;;9.41;100.00;102846.72;5025223;28;20383;-64
2023/04/19 06:06:50;;;;;;;20.50;8.75;;;;;;;9.61;100.00;102837.13;5040753;28;20462;-67
2023/04/19 06:09:17;;;;;;;16.95;8.55;;;;;;;9.56;100.00;102833.63;5044554;28;20108;-66
2023/04/19 06:11:43;;;;;;;11.50;8.63;;;;;;;9.60;100.00;102840.66;5042319;28;20079;-65
2023/04/19 06:14:09;;;;;;;13.68;9.25;;;;;;;9.45;100.00;102845.91;5044899;28;20578;-65
2023/04/19 06:16:34;;;;;;;11.55;8.10;;;;;;;9.63;100.00;102841.56;5015813;28;20112;-65
2023/04/19 06:19:00;;;;;;;14.60;8.52;;;;;;;9.39;100.00;102840.59;5031348;28;20107;-64
2023/04/19 06:21:25;;;;;;;11.80;8.10;;;;;;;9.53;100.00;102846.78;5043501;28;20506;-65
2023/04/19 06:23:51;;;;;;;12.90;8.90;;;;;;;9.56;100.00;102854.69;5044307;28;20111;-64
2023/04/19 06:26:16;;;;;;;15.98;9.00;;;;;;;9.74;100.00;102842.44;5041813;28;20117;-65
2023/04/19 06:28:41;;;;;;;12.30;7.97;;;;;;;9.83;100.00;102844.22;5043788;28;20044;-65
2023/04/19 06:31:07;;;;;;;12.90;7.53;;;;;;;9.84;100.00;102838.06;5039772;28;20056;-65
2023/04/19 06:33:32;;;;;;;10.95;7.93;;;;;;;9.94;100.00;102839.81;5043776;28;20032;-66
2023/04/19 06:35:57;;;;;;;14.35;7.47;;;;;;;10.04;100.00;102842.47;5041979;28;20481;-65
2023/04/19 06:38:23;;;;;;;12.20;7.65;;;;;;;10.07;100.00;102832.81;5040362;28;20082;-67
2023/04/19 06:40:48;;;;;;;16.27;8.13;;;;;;;9.89;100.00;102843.34;5044448;28;20029;-65
2023/04/19 06:43:14;;;;;;;10.73;7.35;;;;;;;9.98;100.00;102845.97;5026919;28;20076;-65
2023/04/19 06:45:39;;;;;;;17.27;8.70;;;;;;;9.89;100.00;102849.50;5007973;28;20100;-64
2023/04/19 06:48:04;;;;;;;11.05;7.65;;;;;;;9.93;100.00;102850.38;5037711;28;20443;-65
2023/04/19 06:50:30;;;;;;;12.55;7.25;;;;;;;9.91;100.00;102846.84;5044676;28;20483;-65
2023/04/19 06:52:55;;;;;;;10.80;7.38;;;;;;;10.06;100.00;102844.22;5024774;28;20029;-68
2023/04/19 06:55:21;;;;;;;12.13;7.25;;;;;;;10.13;100.00;102849.50;5010706;28;20029;-65
2023/04/19 06:57:46;;;;;;;8.20;6.50;;;;;;;10.29;100.00;102845.97;5043903;28;20021;-64
2023/04/19 07:00:12;;;;;;;10.70;6.70;;;;;;;10.33;100.00;102842.47;5048126;28;20522;-65
2023/04/19 07:02:38;;;;;;;9.23;6.57;;;;;;;10.53;100.00;102848.66;5048462;28;20029;-65
2023/04/19 07:05:04;;;;;;;10.48;6.97;;;;;;;10.42;100.00;102846.84;5049260;28;20573;-66
2023/04/19 07:07:29;;;;;;;11.35;6.90;;;;;;;10.29;100.00;102835.44;5036232;28;20132;-64
2023/04/19 07:09:54;;;;;;;9.80;7.25;;;;;;;10.51;100.00;102838.13;5036140;28;20028;-64
2023/04/19 07:12:20;;;;;;;10.57;6.57;;;;;;;10.51;100.00;102837.22;5046081;28;20064;-67
2023/04/19 07:14:45;;;;;;;9.15;6.45;;;;;;;10.51;100.00;102840.75;5048524;28;20089;-64
2023/04/19 07:17:12;;;;;;;10.48;6.72;;;;;;;10.42;100.00;102838.94;5030043;28;20028;-65
2023/04/19 07:19:37;;;;;;;13.15;7.40;;;;;;;10.47;100.00;102838.97;5048242;28;20021;-64
2023/04/19 07:22:05;;;;;;;14.40;6.85;;;;;;;10.40;100.00;102842.47;5026543;28;20030;-63
2023/04/19 07:24:30;;;;;;;10.68;7.10;;;;;;;10.30;100.00;102834.56;5044425;28;20025;-67
2023/04/19 07:26:56;;;;;;;10.75;6.45;;;;;;;10.55;100.00;102831.06;5047675;28;20037;-65
2023/04/19 07:29:21;;;;;;;10.10;6.10;;;;;;;10.64;100.00;102832.78;5047257;28;20098;-65
2023/04/19 07:31:47;;;;;;;8.45;5.70;;;;;;;10.74;100.00;102834.53;5047243;28;20210;-67
2023/04/19 07:34:12;;;;;;;11.60;5.82;;;;;;;10.75;99.15;102836.31;5047857;28;20048;-64
2023/04/19 07:36:37;;;;;;;13.38;6.10;;;;;;;10.83;98.17;102829.25;5048504;28;20052;-66
2023/04/19 07:39:03;;;;;;;11.55;6.30;;;;;;;10.78;98.23;102833.66;5048223;28;20104;-65
2023/04/19 07:41:30;;;;;;;11.45;6.00;;;;;;;11.02;96.45;102829.19;5049246;28;20036;-65
2023/04/19 07:43:55;;;;;;;13.80;5.80;;;;;;;11.07;96.10;102827.41;5046432;28;20029;-66
2023/04/19 07:46:21;;;;;;;7.95;5.60;;;;;;;11.05;96.36;102831.78;5047450;28;20043;-66
2023/04/19 07:48:46;;;;;;;14.57;5.75;;;;;;;11.10;95.19;102827.38;5040664;28;20033;-66
2023/04/19 07:51:13;;;;;;;10.45;5.97;;;;;;;11.19;95.77;102828.22;5041526;28;20025;-65
2023/04/19 07:53:40;;;;;;;12.60;6.63;;;;;;;11.30;94.85;102828.19;5045323;28;20030;-64
2023/04/19 07:56:07;;;;;;;10.10;5.40;;;;;;;11.27;95.01;102826.44;5039368;28;20032;-64
2023/04/19 07:58:32;;;;;;;11.05;6.20;;;;;;;11.14;95.25;102830.00;5046623;28;20024;-66
2023/04/19 08:00:57;;;;;;;7.57;5.70;;;;;;;11.16;93.83;102834.41;5045014;28;20531;-64
2023/04/19 08:03:23;;;;;;;10.80;5.90;;;;;;;11.45;92.99;102832.50;5047247;28;20029;-65
2023/04/19 08:05:49;;;;;;;10.40;5.07;;;;;;;11.26;93.15;102829.97;5027944;28;20067;-65
2023/04/19 08:08:14;;;;;;;6.60;5.20;;;;;;;11.20;94.28;102830.84;5046574;28;20077;-64
2023/04/19 08:10:40;;;;;;;10.35;5.57;;;;;;;11.16;94.82;102817.66;5028757;28;20017;-65
2023/04/19 08:13:05;;;;;;;11.40;5.95;;;;;;;11.50;93.23;102818.38;5026141;28;20040;-65
2023/04/19 08:15:32;;;;;;;11.55;5.78;;;;;;;11.55;92.71;102822.75;5046029;28;20021;-66
2023/04/19 08:17:57;;;;;;;9.20;5.50;;;;;;;11.57;91.33;102816.59;5005769;28;20037;-64
2023/04/19 08:20:23;;;;;;;11.70;5.60;;;;;;;11.78;90.88;102817.34;5045464;28;20044;-65
2023/04/19 08:22:48;;;;;;;10.50;4.50;;;;;;;11.46;91.80;102816.66;5027432;28;20031;-69
2023/04/19 08:25:13;;;;;;;11.00;4.43;;;;;;;11.48;90.54;102814.00;5045219;28;20025;-64
2023/04/19 08:27:39;;;;;;;9.75;4.50;;;;;;;11.72;87.89;102814.72;5045067;28;20392;-65
2023/04/19 08:30:06;;;;;;;6.38;3.78;;;;;;;11.75;85.15;102812.06;5034998;28;20026;-66
2023/04/19 08:32:32;;;;;;;14.80;3.92;;;;;;;11.81;81.13;102809.38;5045972;28;20025;-65
2023/04/19 08:34:57;;;;;;;7.07;4.10;;;;;;;11.86;80.44;102817.28;5035535;28;20036;-63
2023/04/19 08:37:23;;;;;;;7.75;3.60;;;;;;;12.04;78.93;102818.88;5028218;28;20049;-66
2023/04/19 08:39:48;;;;;;;11.30;3.72;;;;;;;12.05;77.50;102820.66;5033369;28;20033;-64
2023/04/19 08:42:13;;;;;;;8.80;3.83;;;;;;;11.94;76.89;102822.50;5047790;28;20025;-65
2023/04/19 08:44:39;;;;;;;9.55;3.40;;;;;;;11.91;77.11;102823.41;5045842;28;20515;-66
2023/04/19 08:47:05;;;;;;;9.27;3.47;;;;;;;12.06;76.84;102811.81;5029335;28;20410;-66
2023/04/19 08:49:35;;;;;;;8.15;3.20;;;;;;;12.21;76.73;102820.53;5045630;28;20041;-66
2023/04/19 08:52:01;;;;;;;5.53;3.20;;;;;;;12.24;76.00;102821.41;5029068;28;20518;-66
2023/04/19 08:54:28;;;;;;;6.18;3.35;;;;;;;12.49;74.60;102814.97;5047545;28;20033;-66
2023/04/19 08:56:54;;;;;;;5.30;3.08;;;;;;;12.31;73.09;102816.06;5029364;28;20063;-66
2023/04/19 08:59:19;;;;;;;5.80;3.20;;;;;;;12.21;71.80;102817.91;5046153;28;20057;-64
2023/04/19 09:01:45;;;;;;;4.13;2.92;;;;;;;12.19;72.07;102814.41;5046217;28;20075;-65
2023/04/19 09:04:10;;;;;;;5.00;2.85;;;;;;;12.12;70.73;102817.09;5028618;28;20458;-66
2023/04/19 09:06:36;;;;;;;5.30;3.30;;;;;;;12.31;71.69;102818.69;5045478;28;20017;-65
2023/04/19 09:09:16;;;;;;;18.02;3.47;;;;;;;12.30;70.86;102807.25;5028367;28;20032;-66
2023/04/19 09:11:42;;;;;;;5.63;2.90;;;;;;;12.20;70.65;102808.22;5031517;28;20034;-65
2023/04/19 09:14:12;;;;;;;5.00;2.83;;;;;;;12.47;70.80;102820.31;5027194;28;20435;-57
2023/04/19 09:16:38;;;;;;;8.88;2.88;;;;;;;12.75;68.95;102811.19;5034611;28;20116;-56
2023/04/19 09:19:04;;;;;;;4.60;3.30;;;;;;;12.50;70.61;102808.81;5041970;28;20555;-57
2023/04/19 09:21:31;;;;;;;3.20;2.90;;;;;;;12.41;69.63;102808.91;5045400;28;20372;-59
2023/04/19 09:23:56;;;;;;;5.80;3.38;;;;;;;12.37;68.78;102803.66;5045715;28;20079;-59
2023/04/19 09:26:22;;;;;;;3.38;2.92;;;;;;;12.52;69.18;102807.00;5027196;28;20029;-56
2023/04/19 09:28:56;;;;;;;5.30;3.03;;;;;;;12.30;68.96;102807.25;5045130;28;20057;-57
2023/04/19 09:31:22;;;;;;;5.13;3.00;;;;;;;12.68;68.78;102801.56;5045298;28;20102;-57
2023/04/19 09:33:47;;;;;;;8.05;3.35;;;;;;;12.74;68.14;102783.84;5043228;28;20040;-58
2023/04/19 09:36:29;;;;;;;8.25;3.22;;;;;;;12.79;68.39;102791.72;5043994;28;20033;-59
2023/04/19 09:38:55;;;;;;;6.50;2.83;;;;;;;12.83;68.14;102792.59;5041302;28;20486;-56
2023/04/19 09:41:20;;;;;;;5.82;3.05;;;;;;;13.02;66.89;102790.56;5044381;28;20037;-60
2023/04/19 09:43:46;;;;;;;5.40;2.80;;;;;;;12.88;62.07;102799.56;5029057;28;20493;-59
2023/04/19 09:46:45;;;;;;;4.13;2.40;;;;;;;12.76;63.67;102797.06;5017586;28;20449;-59
2023/04/19 09:49:14;;;;;;;11.23;2.88;;;;;;;12.84;63.71;102794.31;5002363;28;20048;-58
2023/04/19 09:51:40;;;;;;;;;;;;;;;12.77;62.54;102785.59;5047255;28;20035;-61
2023/04/19 09:54:05;;;;;;;5.97;2.38;;;;;;;12.89;60.99;102788.06;5039133;28;19939;-59
2023/04/19 09:56:30;;;;;;;6.13;2.30;;;;;;;12.76;62.00;102786.47;5028876;28;20075;-59
2023/04/19 09:58:56;;;;;;;2.88;2.33;;;;;;;12.89;58.56;102793.38;5037310;28;20026;-59
2023/04/19 10:01:21;;;;;;;4.78;2.20;;;;;;;12.86;59.63;102782.81;5026267;28;20039;-61
2023/04/19 10:03:48;;;;;;;2.20;2.00;;;;;;;13.02;58.83;102788.81;5028270;28;20146;-61
2023/04/19 10:06:16;;;;;;;4.68;1.98;;;;;;;13.05;57.80;102790.53;5045674;28;20036;-59
2023/04/19 10:08:42;;;;;;;8.63;2.30;;;;;;;12.83;57.88;102774.94;5028344;28;20035;-61
2023/04/19 10:11:09;;;;;;;3.38;1.90;;;;;;;12.95;57.97;102794.19;5045081;28;20033;-57
2023/04/19 10:13:36;;;;;;;2.22;1.80;;;;;;;12.84;54.66;102783.75;5027269;28;20049;-58
2023/04/19 10:16:02;;;;;;;3.38;1.90;;;;;;;12.93;57.13;102785.41;5013480;28;20112;-60
2023/04/19 10:18:28;;;;;;;5.97;1.83;;;;;;;12.87;55.16;102781.94;5026330;28;20108;-59
2023/04/19 10:20:58;;;;;;;14.10;2.30;;;;;;;12.95;54.46;102780.97;5038164;28;20120;-59
2023/04/19 10:23:24;;;;;;;3.70;1.95;;;;;;;12.87;56.38;102779.31;5027457;28;20025;-57
2023/04/19 10:25:56;;;;;;;2.17;1.98;;;;;;;13.17;57.02;102785.97;5027382;28;20053;-58
2023/04/19 10:28:21;;;;;;;3.67;2.10;;;;;;;12.85;53.04;102783.72;5041054;28;20017;-58
2023/04/19 10:31:00;;;;;;;4.75;1.60;;;;;;;13.16;53.58;102781.56;5043823;28;20166;-56
2023/04/19 10:33:27;;;;;;;3.78;1.60;;;;;;;13.55;55.24;102776.66;5046328;28;20111;-57
2023/04/19 10:35:56;;;;;;;3.03;1.70;;;;;;;13.23;52.64;102770.88;5012045;28;20030;-58
2023/04/19 10:38:35;;;;;;;3.70;1.60;;;;;;;13.61;55.19;102771.22;5028315;28;20029;-62
2023/04/19 10:41:02;;;;;;;3.42;1.77;;;;;;;13.53;55.43;102773.13;5045935;28;20449;-59
2023/04/19 10:43:33;;;;;;;2.75;1.80;;;;;;;13.69;53.47;102765.81;5047844;28;20329;-61
2023/04/19 10:46:06;;;;;;;8.88;1.80;;;;;;;13.80;52.78;102770.06;5031105;28;20040;-57
2023/04/19 10:48:33;;;;;;;2.38;1.90;;;;;;;13.75;53.10;102767.47;5048778;28;20025;-60
2023/04/19 10:51:17;;;;;;;3.20;2.03;;;;;;;13.88;52.82;102776.13;5031888;28;20104;-56
2023/04/19 10:53:54;;;;;;;2.08;1.60;;;;;;;13.57;50.73;102772.19;5028281;28;20169;-60
2023/04/19 10:56:22;;;;;;;3.38;1.80;;;;;;;13.50;52.18;102774.06;5044844;28;20056;-59
2023/04/19 10:59:21;;;;;;;2.03;1.70;;;;;;;13.89;52.13;102765.50;5039327;28;20024;-57
2023/04/19 11:01:45;;;;;;;4.43;1.88;;;;;;;14.32;50.15;102762.97;5046248;28;20415;-58
2023/04/19 11:04:12;;;;;;;1.85;1.50;;;;;;;14.29;48.39;102757.72;5027926;28;20033;-56
2023/04/19 11:07:01;;;;;;;3.75;1.60;;;;;;;14.45;49.75;102758.28;5022656;28;20114;-57
2023/04/19 11:09:34;;;;;;;1.88;1.63;;;;;;;14.55;47.56;102758.09;5043584;28;20029;-59
2023/04/19 11:12:11;;;;;;;3.05;1.77;;;;;;;14.77;48.68;102764.72;5047877;28;20021;-61
2023/04/19 11:14:40;;;;;;;4.10;1.45;;;;;;;14.35;47.25;102757.59;5042823;28;20020;-60